Time;durP1;ratioP1;P1;durP2;ratioP2;P2;SDS_P1;SDS_P2;PMS_P1;PMS_P2;Temp;Humidity;BMP_temperature;BMP_pressure;BME280_temperature;BME280_humidity;BME280_pressure;Samples;Min_cycle;Max_cycle;Signal;HPM_P1;HPM_P2
2022/11/14 00:00:13;;;;;;;63.13;28.87;;;;;;;7.37;88.67;100293.73;1733017;82;21003;-48
2022/11/14 00:02:40;;;;;;;63.90;30.60;;;;;;;7.38;88.77;100292.85;1733128;82;21469;-48
2022/11/14 00:05:08;;;;;;;61.70;28.87;;;;;;;7.37;89.01;100289.81;1733165;82;20980;-49
2022/11/14 00:07:34;;;;;;;66.22;30.65;;;;;;;7.38;89.09;100288.92;1733101;82;21039;-47
2022/11/14 00:10:00;;;;;;;62.98;28.80;;;;;;;7.38;88.95;100287.62;1733111;83;21489;-47
2022/11/14 00:12:26;;;;;;;61.15;29.05;;;;;;;7.34;89.28;100285.53;1733229;82;21000;-50
2022/11/14 00:14:54;;;;;;;62.88;29.37;;;;;;;7.34;89.08;100286.84;1733170;82;21468;-48
2022/11/14 00:17:20;;;;;;;58.10;29.37;;;;;;;7.32;89.18;100291.72;1733169;82;21003;-46
2022/11/14 00:19:46;;;;;;;67.12;29.55;;;;;;;7.33;89.34;100285.56;1733207;83;21047;-46
2022/11/14 00:22:12;;;;;;;60.58;28.38;;;;;;;7.34;89.41;100288.14;1733171;83;20996;-48
2022/11/14 00:24:37;;;;;;;64.37;29.65;;;;;;;7.30;89.34;100282.59;1733078;83;20984;-48
2022/11/14 00:27:03;;;;;;;67.62;30.08;;;;;;;7.31;89.25;100288.22;1733169;82;20996;-46
2022/11/14 00:29:29;;;;;;;65.70;29.98;;;;;;;7.35;89.65;100292.92;1733186;82;21031;-46
2022/11/14 00:31:55;;;;;;;63.87;28.73;;;;;;;7.28;89.40;100293.09;1733187;82;21474;-47
2022/11/14 00:34:20;;;;;;;62.03;28.35;;;;;;;7.32;89.33;100289.09;1733098;82;21051;-48
2022/11/14 00:36:46;;;;;;;60.17;29.40;;;;;;;7.30;89.14;100288.67;1733161;82;20999;-48
2022/11/14 00:39:14;;;;;;;62.78;29.48;;;;;;;7.30;89.16;100294.37;1733109;82;21031;-48
2022/11/14 00:41:40;;;;;;;;;;;;;;;7.28;89.30;100287.86;1735726;83;20995;-50
2022/11/14 00:44:06;;;;;;;64.90;28.42;;;;;;;7.26;89.31;100286.20;1733347;82;20412;-50
2022/11/14 00:46:34;;;;;;;63.15;29.37;;;;;;;7.28;89.31;100282.62;1733089;82;21043;-50
2022/11/14 00:49:00;;;;;;;60.12;28.92;;;;;;;7.25;89.28;100285.31;1735518;82;21031;-49
2022/11/14 00:51:26;;;;;;;61.20;29.55;;;;;;;7.20;89.65;100270.17;1735543;82;21043;-47
2022/11/14 00:53:51;;;;;;;63.48;29.10;;;;;;;7.23;89.34;100269.26;1735803;82;20999;-50
2022/11/14 00:56:17;;;;;;;60.98;28.38;;;;;;;7.23;89.55;100275.34;1735746;82;21004;-46
2022/11/14 00:58:43;;;;;;;59.15;29.10;;;;;;;7.17;89.83;100271.59;1735777;82;21004;-50
2022/11/14 01:01:09;;;;;;;60.75;28.35;;;;;;;7.18;90.03;100277.67;1735746;82;21808;-48
2022/11/14 01:03:35;;;;;;;64.45;29.23;;;;;;;7.11;89.84;100269.98;1735800;82;21472;-48
2022/11/14 01:06:07;;;;;;;62.88;28.85;;;;;;;7.11;90.18;100262.56;1735635;82;21485;-49
2022/11/14 01:08:34;;;;;;;66.00;30.27;;;;;;;7.13;90.04;100256.88;1735647;82;21007;-47
2022/11/14 01:10:59;;;;;;;60.90;28.98;;;;;;;7.18;90.26;100254.13;1735549;82;21529;-50
2022/11/14 01:13:29;;;;;;;68.83;30.60;;;;;;;7.18;90.03;100249.74;1735770;82;20976;-49
2022/11/14 01:15:59;;;;;;;61.85;29.70;;;;;;;7.22;90.01;100254.45;1735669;82;21027;-47
2022/11/14 01:18:25;;;;;;;63.08;29.50;;;;;;;7.26;89.63;100246.95;1735551;82;20991;-48
2022/11/14 01:20:51;;;;;;;64.22;29.07;;;;;;;7.26;89.58;100250.87;1735951;82;21509;-46
2022/11/14 01:23:17;;;;;;;63.40;28.75;;;;;;;7.27;89.68;100248.19;1735777;82;21053;-47
2022/11/14 01:25:44;;;;;;;61.73;28.02;;;;;;;7.22;89.58;100244.86;1735639;83;21466;-48
2022/11/14 01:28:16;;;;;;;59.70;27.67;;;;;;;7.21;89.62;100246.20;1735958;82;21466;-50
2022/11/14 01:30:42;;;;;;;60.17;28.67;;;;;;;7.23;89.45;100241.79;1735497;82;21007;-47
2022/11/14 01:33:09;;;;;;;60.88;27.90;;;;;;;7.21;89.42;100230.05;1735620;82;21461;-50
2022/11/14 01:35:37;;;;;;;59.77;27.15;;;;;;;7.21;89.51;100223.97;1735874;82;21493;-49
2022/11/14 01:38:04;;;;;;;61.40;28.87;;;;;;;7.16;89.60;100223.23;1735747;82;21035;-47
2022/11/14 01:40:31;;;;;;;65.25;29.57;;;;;;;7.06;90.04;100225.23;1735675;82;21525;-46
2022/11/14 01:43:23;;;;;;;56.83;28.27;;;;;;;7.12;90.07;100221.14;1735917;82;20988;-49
2022/11/14 01:46:15;;;;;;;66.70;29.00;;;;;;;7.07;90.07;100215.16;1735692;82;21528;-48
2022/11/14 01:48:58;;;;;;;60.28;29.72;;;;;;;7.02;90.56;100214.42;1734093;82;21083;-50
2022/11/14 01:51:29;;;;;;;66.67;28.02;;;;;;;7.03;90.60;100208.30;1733050;82;20972;-48
2022/11/14 01:53:58;;;;;;;63.80;28.02;;;;;;;7.02;90.68;100213.11;1732992;82;21004;-48
2022/11/14 01:56:32;;;;;;;55.80;27.10;;;;;;;6.96;90.74;100204.98;1733049;83;21472;-48
2022/11/14 01:59:02;;;;;;;62.17;28.10;;;;;;;6.94;90.93;100207.23;1733136;82;20999;-46
2022/11/14 02:01:36;;;;;;;62.88;29.98;;;;;;;6.94;91.03;100200.70;1732883;82;20988;-50
2022/11/14 02:04:05;;;;;;;68.78;29.48;;;;;;;6.95;91.11;100195.44;1733084;82;21003;-46
2022/11/14 02:06:31;;;;;;;59.65;27.90;;;;;;;6.92;91.14;100198.12;1712156;83;21051;-50
2022/11/14 02:09:02;;;;;;;64.10;30.10;;;;;;;6.81;91.67;100196.23;1733110;82;21031;-47
2022/11/14 02:11:30;;;;;;;62.05;28.25;;;;;;;6.89;91.52;100196.45;1733109;82;21008;-48
2022/11/14 02:13:57;;;;;;;62.40;28.10;;;;;;;6.85;91.60;100198.72;1733062;82;21536;-48
2022/11/14 02:16:25;;;;;;;62.25;28.67;;;;;;;6.86;91.40;100186.52;1733126;83;21007;-49
2022/11/14 02:18:51;;;;;;;70.15;28.32;;;;;;;6.82;91.58;100188.36;1732963;82;21561;-51
2022/11/14 02:21:17;;;;;;;61.50;27.82;;;;;;;6.85;91.70;100185.64;1733017;83;21000;-48
2022/11/14 02:23:43;;;;;;;60.88;28.65;;;;;;;6.83;91.69;100182.22;1733016;82;21027;-50
2022/11/14 02:26:08;;;;;;;63.00;28.00;;;;;;;6.83;91.74;100175.67;1732946;82;21004;-49
2022/11/14 02:28:34;;;;;;;58.48;27.17;;;;;;;6.84;91.50;100181.33;1733009;82;21047;-45
2022/11/14 02:31:00;;;;;;;59.33;27.17;;;;;;;6.76;92.02;100172.81;1733028;82;21000;-46
2022/11/14 02:33:26;;;;;;;58.90;27.05;;;;;;;6.70;92.22;100170.36;1732956;83;21039;-46
2022/11/14 02:35:52;;;;;;;66.30;28.40;;;;;;;6.67;92.66;100163.89;1733107;82;21484;-47
2022/11/14 02:38:17;;;;;;;58.23;26.55;;;;;;;6.66;92.52;100164.35;1732941;82;21036;-46
2022/11/14 02:41:03;;;;;;;63.15;27.60;;;;;;;6.66;92.51;100159.58;1717667;81;21322;-49
2022/11/14 02:43:29;;;;;;;57.75;26.45;;;;;;;6.68;92.29;100157.78;1681090;85;21035;-49
2022/11/14 02:45:54;;;;;;;60.03;27.22;;;;;;;6.70;92.46;100154.67;1680494;85;21036;-50
2022/11/14 02:48:20;;;;;;;60.67;25.15;;;;;;;6.66;92.43;100160.43;1680571;85;21009;-46
2022/11/14 02:50:49;;;;;;;60.95;27.22;;;;;;;6.55;92.64;100158.55;1680620;85;21008;-50
2022/11/14 02:53:15;;;;;;;61.00;28.10;;;;;;;6.54;93.15;100153.74;1675366;85;21037;-49
2022/11/14 02:55:41;;;;;;;64.32;28.32;;;;;;;6.60;92.88;100158.41;1682227;85;21055;-50
2022/11/14 02:58:07;;;;;;;59.98;26.68;;;;;;;6.61;92.77;100157.53;1679861;84;20972;-51
2022/11/14 03:00:33;;;;;;;58.15;26.42;;;;;;;6.65;93.01;100157.39;1674307;85;21003;-50
2022/11/14 03:02:59;;;;;;;60.28;26.40;;;;;;;6.61;93.19;100157.07;1682807;85;21449;-50
2022/11/14 03:05:25;;;;;;;60.48;27.65;;;;;;;6.65;92.97;100156.55;1682758;85;21006;-51
2022/11/14 03:07:54;;;;;;;65.92;29.02;;;;;;;6.64;92.92;100146.97;1680894;85;21004;-50
2022/11/14 03:10:22;;;;;;;63.28;29.72;;;;;;;6.63;93.09;100151.35;1679308;85;21000;-51
2022/11/14 03:12:54;;;;;;;61.05;28.85;;;;;;;6.70;92.96;100151.61;1679561;85;21015;-49
2022/11/14 03:15:20;;;;;;;72.80;30.72;;;;;;;6.68;92.94;100145.56;1677957;83;21035;-48
2022/11/14 03:17:46;;;;;;;68.78;30.05;;;;;;;6.67;92.95;100147.75;1668922;85;21441;-49
2022/11/14 03:20:12;;;;;;;114.57;50.35;;;;;;;6.72;92.85;100148.50;1682753;85;21000;-50
2022/11/14 03:22:38;;;;;;;66.30;30.17;;;;;;;6.67;92.99;100144.30;1678349;85;20987;-50
2022/11/14 03:25:05;;;;;;;62.35;28.62;;;;;;;6.53;93.00;100140.70;1680609;85;21007;-50
2022/11/14 03:27:30;;;;;;;57.17;26.43;;;;;;;6.62;93.00;100135.28;1678982;85;21009;-50
2022/11/14 03:29:56;;;;;;;62.80;27.75;;;;;;;6.68;93.06;100139.48;1679245;85;21005;-49
2022/11/14 03:32:22;;;;;;;60.43;26.70;;;;;;;6.65;93.30;100131.72;1680061;85;21024;-50
2022/11/14 03:34:48;;;;;;;61.80;28.15;;;;;;;6.59;93.23;100127.97;1679380;85;21472;-50
2022/11/14 03:37:13;;;;;;;57.55;26.48;;;;;;;6.61;93.17;100124.86;1675831;85;21524;-47
2022/11/14 03:39:39;;;;;;;60.65;26.90;;;;;;;6.61;93.09;100125.70;1679605;85;21003;-51
2022/11/14 03:42:05;;;;;;;64.15;27.17;;;;;;;6.56;93.41;100126.73;1677429;84;21031;-51
2022/11/14 03:44:31;;;;;;;58.30;26.93;;;;;;;6.60;93.25;100120.52;1674801;85;20980;-48
2022/11/14 03:46:56;;;;;;;57.90;26.75;;;;;;;6.48;93.67;100121.24;1675197;85;20976;-47
2022/11/14 03:49:22;;;;;;;62.33;27.80;;;;;;;6.59;93.63;100118.81;1682873;85;21426;-49
2022/11/14 03:51:48;;;;;;;59.13;27.25;;;;;;;6.62;93.62;100118.72;1682932;85;21003;-50
2022/11/14 03:54:14;;;;;;;60.40;28.50;;;;;;;6.65;93.41;100121.27;1680264;85;21517;-51
2022/11/14 03:56:40;;;;;;;62.33;27.32;;;;;;;6.64;93.45;100113.00;1680307;85;21485;-50
2022/11/14 03:59:05;;;;;;;61.70;27.45;;;;;;;6.67;93.35;100114.23;1678999;85;21039;-49
2022/11/14 04:01:31;;;;;;;60.20;27.93;;;;;;;6.69;93.16;100113.74;1679319;85;21008;-51
2022/11/14 04:03:57;;;;;;;62.73;27.40;;;;;;;6.68;93.17;100110.73;1678793;85;21047;-50
2022/11/14 04:06:23;;;;;;;57.30;27.65;;;;;;;6.65;93.33;100104.27;1680336;85;21004;-49
2022/11/14 04:08:50;;;;;;;57.55;27.87;;;;;;;6.62;93.38;100102.61;1679422;85;20980;-48
2022/11/14 04:11:17;;;;;;;65.08;27.77;;;;;;;6.61;93.59;100092.19;1676896;85;21480;-48
2022/11/14 04:13:42;;;;;;;57.85;27.22;;;;;;;6.58;93.69;100087.88;1674702;85;21039;-50
2022/11/14 04:16:08;;;;;;;62.83;27.82;;;;;;;6.60;93.59;100090.00;1682162;85;21505;-48
2022/11/14 04:18:34;;;;;;;61.10;28.62;;;;;;;6.61;93.52;100085.66;1678730;85;21042;-48
2022/11/14 04:21:00;;;;;;;65.60;28.25;;;;;;;6.57;93.69;100089.23;1680372;85;21149;-50
2022/11/14 04:23:25;;;;;;;67.42;27.93;;;;;;;6.58;93.67;100089.65;1679045;85;21083;-48
2022/11/14 04:25:51;;;;;;;65.92;27.93;;;;;;;6.53;93.66;100091.06;1679042;85;21047;-48
2022/11/14 04:28:17;;;;;;;58.98;28.50;;;;;;;6.59;93.49;100083.53;1680233;85;21011;-49
2022/11/14 04:30:44;;;;;;;56.15;26.25;;;;;;;6.63;93.44;100086.47;1680236;85;20976;-50
2022/11/14 04:33:10;;;;;;;62.15;27.50;;;;;;;6.67;93.31;100077.64;1679790;84;21016;-48
2022/11/14 04:35:36;;;;;;;60.73;28.80;;;;;;;6.65;93.24;100074.22;1675548;85;20976;-49
2022/11/14 04:38:02;;;;;;;56.53;27.17;;;;;;;6.59;93.38;100075.23;1680839;85;21484;-49
2022/11/14 04:40:28;;;;;;;59.37;27.67;;;;;;;6.53;93.73;100081.48;1678689;84;21007;-47
2022/11/14 04:42:54;;;;;;;67.25;28.42;;;;;;;6.57;93.58;100084.00;1675754;85;22353;-48
2022/11/14 04:45:20;;;;;;;55.75;27.10;;;;;;;6.57;93.56;100085.30;1682933;85;21046;-47
2022/11/14 04:47:46;;;;;;;64.53;28.47;;;;;;;6.57;93.54;100080.96;1682677;85;21299;-48
2022/11/14 04:50:11;;;;;;;59.90;27.95;;;;;;;6.58;93.39;100084.42;1678608;85;21010;-48
2022/11/14 04:52:37;;;;;;;63.68;28.73;;;;;;;6.51;93.77;100085.90;1679407;85;21007;-47
2022/11/14 04:55:04;;;;;;;63.48;29.60;;;;;;;6.58;93.89;100087.03;1679028;85;20999;-51
2022/11/14 04:57:29;;;;;;;61.98;28.67;;;;;;;6.62;93.63;100082.13;1680268;85;21011;-49
2022/11/14 04:59:55;;;;;;;67.12;29.15;;;;;;;6.65;93.61;100082.06;1678314;85;21011;-51
2022/11/14 05:02:21;;;;;;;65.03;29.32;;;;;;;6.69;93.50;100075.84;1677646;85;21011;-48
2022/11/14 05:04:47;;;;;;;67.42;31.42;;;;;;;6.70;93.42;100078.88;1675878;85;21007;-49
2022/11/14 05:07:14;;;;;;;70.03;30.95;;;;;;;6.68;93.43;100074.99;1682394;85;21000;-48
2022/11/14 05:09:40;;;;;;;64.50;30.12;;;;;;;6.72;93.13;100082.30;1680629;85;21015;-47
2022/11/14 05:12:06;;;;;;;63.85;29.12;;;;;;;6.73;93.16;100082.70;1677489;85;21007;-47
2022/11/14 05:14:32;;;;;;;70.67;28.75;;;;;;;6.74;93.03;100080.50;1679851;85;21484;-47
2022/11/14 05:16:58;;;;;;;62.95;29.55;;;;;;;6.71;92.80;100081.88;1679296;85;21007;-47
2022/11/14 05:19:24;;;;;;;61.70;29.50;;;;;;;6.65;92.97;100078.13;1674097;85;21003;-47
2022/11/14 05:21:50;;;;;;;60.52;27.82;;;;;;;6.69;92.78;100083.69;1682882;85;21007;-47
2022/11/14 05:24:15;;;;;;;58.05;26.97;;;;;;;6.69;92.73;100074.53;1682764;85;21004;-47
2022/11/14 05:26:41;;;;;;;65.67;29.02;;;;;;;6.65;92.86;100070.30;1681694;85;21011;-47
2022/11/14 05:29:07;;;;;;;65.62;29.07;;;;;;;6.62;93.10;100068.64;1679833;85;20979;-47
2022/11/14 05:31:33;;;;;;;57.35;26.35;;;;;;;6.67;93.14;100072.41;1679566;85;21010;-47
2022/11/14 05:33:58;;;;;;;53.48;26.77;;;;;;;6.60;92.72;100075.63;1678939;85;21540;-47
2022/11/14 05:36:24;;;;;;;62.27;27.73;;;;;;;6.59;92.87;100073.94;1675011;85;20999;-50
2022/11/14 05:38:50;;;;;;;60.45;27.00;;;;;;;6.61;92.79;100071.28;1681618;85;20980;-47
2022/11/14 05:41:22;;;;;;;56.92;27.07;;;;;;;6.56;92.89;100075.77;1677919;85;21047;-47
2022/11/14 05:43:46;;;;;;;62.43;27.25;;;;;;;6.51;93.05;100076.75;1688481;85;21457;-48
2022/11/14 05:46:14;;;;;;;56.15;27.35;;;;;;;6.42;93.56;100074.38;1692997;85;21019;-48
2022/11/14 05:48:41;;;;;;;53.90;26.90;;;;;;;6.42;93.65;100090.06;1675114;85;21492;-47
2022/11/14 05:51:10;;;;;;;61.47;28.40;;;;;;;6.44;94.03;100088.26;1693261;84;21489;-46
2022/11/14 05:53:36;;;;;;;62.53;27.05;;;;;;;6.50;93.67;100093.31;1693120;84;21065;-48
2022/11/14 05:56:05;;;;;;;56.45;26.65;;;;;;;6.52;93.56;100096.75;1692995;85;21398;-47
2022/11/14 05:58:33;;;;;;;58.35;26.90;;;;;;;6.45;93.61;100106.94;1692935;84;21007;-47
2022/11/14 06:01:11;;;;;;;60.95;27.17;;;;;;;6.35;94.02;100095.03;1692892;85;20998;-48
2022/11/14 06:03:41;;;;;;;58.70;27.93;;;;;;;6.26;94.68;100090.88;1692277;83;21027;-47
2022/11/14 06:06:11;;;;;;;61.70;27.17;;;;;;;6.27;94.49;100096.50;1693245;85;21600;-48
2022/11/14 06:08:37;;;;;;;62.43;27.82;;;;;;;6.21;94.68;100094.05;1692913;84;21488;-48
2022/11/14 06:11:14;;;;;;;53.05;26.23;;;;;;;6.19;94.79;100096.30;1692920;84;21046;-47
2022/11/14 06:13:41;;;;;;;57.90;26.37;;;;;;;6.12;95.02;100100.34;1692022;84;21046;-48
2022/11/14 06:16:14;;;;;;;63.30;27.40;;;;;;;6.07;95.13;100098.29;1692866;85;21500;-47
2022/11/14 06:18:40;;;;;;;64.67;26.50;;;;;;;6.02;95.36;100100.60;1692835;83;21461;-47
2022/11/14 06:21:16;;;;;;;60.20;27.48;;;;;;;5.99;95.53;100102.85;1692982;84;20987;-47
2022/11/14 06:23:42;;;;;;;65.83;28.65;;;;;;;5.99;95.97;100102.85;1692930;85;21003;-47
2022/11/14 06:26:29;;;;;;;60.00;26.73;;;;;;;6.01;95.86;100097.14;1692892;85;21007;-49
2022/11/14 06:28:57;;;;;;;67.72;29.32;;;;;;;5.98;96.00;100101.13;1692910;84;21050;-46
2022/11/14 06:31:23;;;;;;;;;;;;;;;6.02;96.23;100092.77;1695492;84;21034;-47
2022/11/14 06:33:49;;;;;;;62.50;28.40;;;;;;;6.02;96.38;100096.69;1693145;85;20428;-48
2022/11/14 06:36:16;;;;;;;68.20;28.85;;;;;;;6.06;96.04;100104.42;1692869;85;21002;-48
2022/11/14 06:38:43;;;;;;;62.60;29.05;;;;;;;6.08;96.09;100105.70;1693081;84;21014;-48
2022/11/14 06:41:13;;;;;;;65.57;29.40;;;;;;;6.01;96.35;100103.67;1693050;84;21429;-47
2022/11/14 06:43:43;;;;;;;63.73;29.48;;;;;;;6.07;96.34;100101.36;1692269;84;21043;-47
2022/11/14 06:46:13;;;;;;;60.88;28.57;;;;;;;6.01;96.55;100104.97;1692971;84;21035;-48
2022/11/14 06:48:40;;;;;;;64.05;30.32;;;;;;;5.97;96.74;100105.95;1692868;84;21023;-48
2022/11/14 06:51:06;;;;;;;63.55;31.20;;;;;;;6.00;96.60;100105.86;1693023;84;21051;-50
2022/11/14 06:53:35;;;;;;;71.62;31.40;;;;;;;5.97;96.90;100094.20;1692870;85;21003;-51
2022/11/14 06:56:08;;;;;;;64.92;30.45;;;;;;;5.98;96.99;100099.81;1692840;85;21019;-48
2022/11/14 06:58:38;;;;;;;64.47;29.55;;;;;;;6.04;96.81;100098.39;1692854;84;21019;-50
2022/11/14 07:01:18;;;;;;;64.45;31.23;;;;;;;6.04;96.81;100097.08;1692930;85;21018;-51
2022/11/14 07:03:44;;;;;;;63.87;32.10;;;;;;;5.97;96.85;100098.12;1692875;84;21612;-49
2022/11/14 07:06:15;;;;;;;72.27;35.65;;;;;;;6.09;96.75;100102.17;1692184;85;21035;-49
2022/11/14 07:08:41;;;;;;;68.92;34.60;;;;;;;6.14;96.72;100093.79;1691933;83;21011;-50
2022/11/14 07:11:11;;;;;;;72.82;32.58;;;;;;;6.21;96.80;100092.75;1692780;84;21011;-49
2022/11/14 07:13:37;;;;;;;67.37;31.27;;;;;;;6.29;96.58;100088.63;1692982;85;21440;-49
2022/11/14 07:16:04;;;;;;;73.83;32.08;;;;;;;6.34;96.07;100094.14;1692782;85;20998;-47
2022/11/14 07:18:33;;;;;;;69.83;33.23;;;;;;;6.38;95.73;100093.63;1692173;84;21007;-48
2022/11/14 07:21:05;;;;;;;65.83;31.12;;;;;;;6.41;95.44;100093.55;1692583;84;21051;-51
2022/11/14 07:23:33;;;;;;;73.70;32.95;;;;;;;6.42;95.56;100074.81;1692055;85;21007;-50
2022/11/14 07:26:07;;;;;;;67.37;30.05;;;;;;;6.45;95.40;100079.50;1692912;84;20980;-48
2022/11/14 07:28:39;;;;;;;62.95;30.40;;;;;;;6.45;94.97;100079.97;1692822;85;21022;-48
2022/11/14 07:31:07;;;;;;;67.00;31.25;;;;;;;6.49;94.82;100079.86;1692766;84;21023;-51
2022/11/14 07:33:34;;;;;;;69.80;31.07;;;;;;;6.48;94.67;100080.74;1692905;84;21488;-49
2022/11/14 07:36:00;;;;;;;72.62;32.33;;;;;;;6.42;94.76;100073.08;1692770;84;20979;-48
2022/11/14 07:38:26;;;;;;;63.87;31.17;;;;;;;6.42;94.77;100073.50;1692791;84;21034;-48
2022/11/14 07:40:57;;;;;;;64.40;29.72;;;;;;;6.40;95.16;100070.08;1692735;85;21011;-48
2022/11/14 07:43:23;;;;;;;66.90;30.72;;;;;;;6.42;95.07;100078.73;1692753;84;21071;-47
2022/11/14 07:45:49;;;;;;;65.50;30.43;;;;;;;6.45;95.05;100076.89;1692802;84;21525;-48
2022/11/14 07:48:15;;;;;;;65.00;30.48;;;;;;;6.38;94.89;100074.03;1692837;84;21003;-47
2022/11/14 07:50:41;;;;;;;55.40;29.05;;;;;;;6.33;94.91;100077.20;1692773;85;21414;-48
2022/11/14 07:53:08;;;;;;;60.95;29.42;;;;;;;6.26;95.09;100076.97;1692764;85;21014;-51
2022/11/14 07:55:37;;;;;;;64.92;29.52;;;;;;;6.27;95.17;100079.52;1692782;84;21054;-47
2022/11/14 07:58:03;;;;;;;82.22;40.23;;;;;;;6.37;95.06;100076.25;1692769;85;20987;-49
2022/11/14 08:00:29;;;;;;;79.07;37.38;;;;;;;6.30;95.00;100074.69;1692742;84;21052;-48
2022/11/14 08:02:55;;;;;;;64.40;29.98;;;;;;;6.31;94.96;100072.47;1692890;84;21867;-48
2022/11/14 08:05:21;;;;;;;70.67;30.88;;;;;;;6.30;95.28;100072.08;1692800;85;21062;-48
2022/11/14 08:07:52;;;;;;;67.47;31.90;;;;;;;6.41;95.05;100074.42;1692832;84;21852;-48
2022/11/14 08:10:19;;;;;;;65.62;30.08;;;;;;;6.48;94.69;100072.05;1692901;84;21059;-50
2022/11/14 08:12:45;;;;;;;64.47;31.07;;;;;;;6.50;94.78;100077.64;1692984;85;21030;-49
2022/11/14 08:15:12;;;;;;;63.30;30.68;;;;;;;6.53;94.55;100076.27;1692725;84;21057;-52
2022/11/14 08:17:38;;;;;;;;;;;;;;;6.52;94.49;100070.61;1695374;85;21011;-51
2022/11/14 08:20:07;;;;;;;64.62;30.92;;;;;;;6.57;94.53;100069.62;1692778;85;20415;-48
2022/11/14 08:22:33;;;;;;;60.20;30.12;;;;;;;6.51;94.35;100068.91;1692773;85;20976;-48
2022/11/14 08:24:58;;;;;;;64.97;31.62;;;;;;;6.58;94.13;100059.14;1692894;85;21523;-49
2022/11/14 08:27:24;;;;;;;53.45;27.37;;;;;;;6.65;94.01;100059.38;1692879;85;21071;-49
2022/11/14 08:29:50;;;;;;;54.33;27.58;;;;;;;6.53;93.53;100051.44;1692985;84;21003;-48
2022/11/14 08:32:18;;;;;;;51.25;27.52;;;;;;;6.58;93.34;100053.06;1692903;85;20984;-48
2022/11/14 08:34:43;;;;;;;57.53;27.60;;;;;;;6.51;92.97;100048.02;1693042;84;21011;-48
2022/11/14 08:37:09;;;;;;;53.95;26.33;;;;;;;6.58;93.01;100047.83;1693087;85;21480;-51
2022/11/14 08:39:35;;;;;;;53.28;25.23;;;;;;;6.61;93.08;100048.61;1700254;84;21046;-51
2022/11/14 08:42:00;;;;;;;46.02;24.20;;;;;;;6.52;93.01;100046.25;1700357;84;20975;-49
2022/11/14 08:44:26;;;;;;;45.80;24.30;;;;;;;6.56;92.60;100050.94;1700279;84;21038;-50
2022/11/14 08:46:52;;;;;;;47.45;25.95;;;;;;;6.54;92.46;100045.30;1700367;84;20983;-51
2022/11/14 08:49:18;;;;;;;48.75;24.55;;;;;;;6.53;92.54;100046.64;1700385;84;21414;-48
2022/11/14 08:51:44;;;;;;;54.10;26.37;;;;;;;6.54;92.59;100047.91;1700386;84;20983;-47
2022/11/14 08:54:10;;;;;;;50.38;24.95;;;;;;;6.53;93.00;100050.13;1700392;84;21007;-51
2022/11/14 08:56:36;;;;;;;49.03;24.55;;;;;;;6.58;92.69;100053.06;1700304;84;21007;-50
2022/11/14 08:59:03;;;;;;;53.13;25.80;;;;;;;6.47;92.83;100050.73;1700383;84;21035;-48
2022/11/14 09:01:29;;;;;;;48.35;24.30;;;;;;;6.48;92.92;100045.47;1700522;84;21027;-50
2022/11/14 09:03:54;;;;;;;52.40;25.57;;;;;;;6.51;92.74;100049.31;1700483;84;20971;-47
2022/11/14 09:06:20;;;;;;;54.08;27.30;;;;;;;6.42;92.96;100034.31;1700387;84;20999;-48
2022/11/14 09:08:46;;;;;;;57.60;26.48;;;;;;;6.49;93.05;100039.36;1700369;84;21057;-47
2022/11/14 09:11:11;;;;;;;54.25;26.65;;;;;;;6.49;92.89;100043.28;1700295;84;21011;-50
2022/11/14 09:13:37;;;;;;;54.00;25.90;;;;;;;6.51;92.91;100040.17;1700386;84;21018;-48
2022/11/14 09:16:03;;;;;;;51.63;25.65;;;;;;;6.52;93.03;100037.95;1700425;84;21430;-48
2022/11/14 09:18:30;;;;;;;56.23;27.70;;;;;;;6.42;93.06;100032.58;1700376;84;21014;-48
2022/11/14 09:21:06;;;;;;;55.45;29.30;;;;;;;6.45;93.30;100029.86;1700380;84;20975;-47
2022/11/14 09:23:32;;;;;;;59.15;28.70;;;;;;;6.53;93.49;100019.20;1700399;84;21001;-47
2022/11/14 09:26:04;;;;;;;54.75;28.62;;;;;;;6.64;93.47;100017.60;1700286;84;21476;-50
2022/11/14 09:28:30;;;;;;;57.40;28.55;;;;;;;6.61;93.03;100019.86;1699110;84;20999;-48
2022/11/14 09:31:07;;;;;;;60.25;28.52;;;;;;;6.67;92.93;100013.61;1700426;84;21551;-50
2022/11/14 09:33:34;;;;;;;67.20;27.77;;;;;;;6.70;93.01;100010.92;1700139;84;21049;-51
2022/11/14 09:36:03;;;;;;;65.25;30.52;;;;;;;6.76;93.06;100007.27;1700466;84;21022;-48
2022/11/14 09:38:30;;;;;;;59.55;29.60;;;;;;;6.84;92.63;100003.55;1700295;84;21014;-51
2022/11/14 09:41:16;;;;;;;55.88;28.92;;;;;;;6.88;92.38;100003.02;1700325;84;21002;-51
2022/11/14 09:44:19;;;;;;;64.05;29.50;;;;;;;6.89;92.08;99999.05;1651832;84;21021;-51
2022/11/14 09:46:51;;;;;;;66.53;28.20;;;;;;;6.92;91.85;99998.94;1698921;83;21046;-48
2022/11/14 09:49:41;;;;;;;60.28;29.65;;;;;;;7.01;91.79;99995.20;1699367;84;20991;-48
2022/11/14 09:52:45;;;;;;;59.93;28.47;;;;;;;7.07;91.81;99991.55;1676807;84;21003;-51
2022/11/14 09:55:24;;;;;;;63.73;30.48;;;;;;;7.14;91.06;100003.55;1664590;84;20991;-50
2022/11/14 09:57:50;;;;;;;67.17;30.62;;;;;;;7.08;90.53;100003.73;1650087;86;21579;-48
2022/11/14 10:00:20;;;;;;;62.53;29.77;;;;;;;7.08;90.47;100003.73;1663575;85;21019;-47
2022/11/14 10:03:16;;;;;;;67.95;31.73;;;;;;;7.10;90.49;100005.85;1663135;86;21059;-47
2022/11/14 10:06:06;;;;;;;70.80;33.95;;;;;;;7.07;90.53;99999.39;1662892;86;22358;-47
2022/11/14 10:08:42;;;;;;;69.50;33.85;;;;;;;7.02;90.26;99996.93;1666989;85;21038;-46
2022/11/14 10:11:43;;;;;;;67.00;31.95;;;;;;;7.00;90.34;99987.40;1687632;83;20968;-48
2022/11/14 10:14:42;;;;;;;65.08;31.68;;;;;;;7.03;90.57;99984.70;1683401;84;20992;-48
2022/11/14 10:17:43;;;;;;;72.47;32.98;;;;;;;7.09;90.71;99987.13;1704693;83;20959;-49
2022/11/14 10:20:27;;;;;;;67.47;33.28;;;;;;;7.06;90.36;99988.09;1692594;83;21044;-49
2022/11/14 10:23:19;;;;;;;71.37;34.03;;;;;;;7.11;90.59;99995.78;1690605;83;21457;-49
2022/11/14 10:26:11;;;;;;;76.33;37.80;;;;;;;7.09;90.65;99990.62;1688475;84;21403;-48
2022/11/14 10:28:42;;;;;;;67.45;33.45;;;;;;;7.19;90.67;99982.49;1686048;83;20968;-50
2022/11/14 10:31:34;;;;;;;70.78;33.23;;;;;;;7.20;90.38;99987.66;1709229;84;20995;-51
2022/11/14 10:34:27;;;;;;;62.35;31.95;;;;;;;7.24;90.27;99981.45;1704355;83;21007;-50
2022/11/14 10:37:07;;;;;;;59.00;29.87;;;;;;;7.21;89.77;99980.22;1679816;84;21145;-51
2022/11/14 10:39:52;;;;;;;60.15;30.88;;;;;;;7.06;89.54;99983.31;1701767;83;21453;-50
2022/11/14 10:42:40;;;;;;;65.32;32.35;;;;;;;6.94;90.02;99982.36;1693456;83;20952;-51
2022/11/14 10:45:39;;;;;;;70.55;32.23;;;;;;;7.01;89.94;99979.52;1710547;83;21095;-48
2022/11/14 10:48:31;;;;;;;60.92;31.87;;;;;;;6.96;90.38;99981.86;1718386;83;20959;-51
2022/11/14 10:51:02;;;;;;;57.35;31.20;;;;;;;6.86;90.68;99976.91;1719884;83;20971;-51
2022/11/14 10:53:51;;;;;;;68.40;33.95;;;;;;;6.89;90.65;99968.10;1720933;83;21050;-49
2022/11/14 10:56:17;;;;;;;66.65;33.13;;;;;;;6.85;90.80;99965.18;1718515;83;21075;-50
2022/11/14 10:58:44;;;;;;;69.42;32.78;;;;;;;6.86;91.03;99960.37;1717859;83;21002;-50
2022/11/14 11:01:56;;;;;;;67.60;33.78;;;;;;;6.77;91.43;99952.34;1718495;83;21067;-51
2022/11/14 11:04:32;;;;;;;73.85;34.92;;;;;;;6.85;91.52;99946.88;1699077;83;21062;-48
2022/11/14 11:11:28;;;;;;;71.87;34.25;;;;;;;6.92;91.42;99934.03;1714426;83;21160;-49
2022/11/14 11:12:44;;;;;;;67.27;34.80;;;;;;;7.05;91.16;99927.98;1720422;83;21043;-48
2022/11/14 11:15:18;;;;;;;69.00;34.63;;;;;;;7.14;90.77;99928.15;1719089;83;21484;-48
2022/11/14 11:18:03;;;;;;;72.15;33.85;;;;;;;7.15;90.66;99924.19;1720603;83;21529;-47
2022/11/14 11:20:39;;;;;;;73.37;34.33;;;;;;;7.18;90.31;99920.14;1719408;83;20995;-50
2022/11/14 11:23:20;;;;;;;64.85;32.53;;;;;;;7.19;90.38;99930.17;1719538;83;21496;-47
2022/11/14 11:25:51;;;;;;;67.75;33.73;;;;;;;7.20;90.18;99919.64;1718794;81;21667;-47
2022/11/14 11:28:20;;;;;;;92.22;38.50;;;;;;;7.27;90.22;99904.62;1717739;83;20983;-47
2022/11/14 11:30:59;;;;;;;74.85;33.95;;;;;;;7.24;89.79;99897.73;1720321;83;21454;-47
2022/11/14 11:33:37;;;;;;;66.40;31.60;;;;;;;7.29;90.10;99898.45;1718778;83;20967;-49